Jhang Sadar, Pakistan
Current Conditions -  °F | °C
As of 7:54 PM on Monday 26 Jan 2015 (Local Time) from OPMT Reporting Station
Haze Haze  
Wind Chill: 50°   Ceiling: Unl
Heat Index: 50°   Visibility: 1.5mi
Dew Point: 45°   Wind: 0mph
Humidity: 82%   Direction: NA
Pressure: 30.12"   Gusts: NA
Location:  31.27°N, 72.32°E
Report Text: OPMT 261454Z 00000KT 2500 BR NSC 10/07 Q1020 TEMPO 2000
Loading
Personal Weather Stations






























Interactive Weather Map New forecast layout! Learn more

10-Day Weather Forecast

Advertisements
Track Severe Weather on mobile